Time;durP1;ratioP1;P1;durP2;ratioP2;P2;SDS_P1;SDS_P2;PMS_P1;PMS_P2;Temp;Humidity;BMP_temperature;BMP_pressure;BME280_temperature;BME280_humidity;BME280_pressure;Samples;Min_cycle;Max_cycle;Signal;HPM_P1;HPM_P2
2022/04/06 00:00:37;;;;;;;38.05;16.20;;;8.00;99.90;;;;;;5034186;28;20443;-84
2022/04/06 00:03:02;;;;;;;62.22;18.45;;;8.00;99.90;;;;;;5033926;28;20076;-85
2022/04/06 00:05:28;;;;;;;50.45;17.50;;;8.00;99.90;;;;;;5033908;28;20480;-85
2022/04/06 00:07:53;;;;;;;45.25;18.35;;;8.00;99.90;;;;;;5033948;28;20087;-85
2022/04/06 00:10:19;;;;;;;48.17;17.65;;;8.00;99.90;;;;;;5033762;28;20074;-84
2022/04/06 00:12:44;;;;;;;49.88;16.67;;;8.00;99.90;;;;;;5033954;28;20045;-85
2022/04/06 00:15:11;;;;;;;46.45;16.83;;;8.00;99.90;;;;;;5033329;28;20133;-85
2022/04/06 00:17:37;;;;;;;41.58;16.15;;;8.00;99.90;;;;;;5033358;28;20037;-85
2022/04/06 00:20:05;;;;;;;41.28;17.98;;;8.10;99.90;;;;;;5033424;28;20033;-85
2022/04/06 00:22:31;;;;;;;44.13;17.83;;;8.10;99.90;;;;;;5033473;28;20053;-85
2022/04/06 00:24:58;;;;;;;44.97;16.48;;;8.10;99.90;;;;;;5034496;28;20046;-85
2022/04/06 00:27:24;;;;;;;46.00;17.45;;;8.10;99.90;;;;;;5036696;28;20118;-85
2022/04/06 00:29:50;;;;;;;49.80;18.80;;;8.00;99.90;;;;;;5035936;28;20076;-85
2022/04/06 00:32:15;;;;;;;61.25;19.15;;;8.10;99.90;;;;;;5034051;28;20373;-85
2022/04/06 00:37:25;;;;;;;44.25;17.15;;;8.10;99.90;;;;;;5033758;28;20049;-85
2022/04/06 00:39:51;;;;;;;47.15;19.92;;;8.00;99.90;;;;;;5033742;28;20116;-85
2022/04/06 00:42:17;;;;;;;43.15;17.08;;;8.10;99.90;;;;;;5033275;28;20103;-85
2022/04/06 00:44:43;;;;;;;46.33;16.65;;;8.10;99.90;;;;;;5032646;28;20448;-85
2022/04/06 00:47:08;;;;;;;35.25;15.98;;;8.10;99.90;;;;;;5033673;28;20129;-85
2022/04/06 00:49:34;;;;;;;44.40;15.90;;;8.10;99.90;;;;;;5033159;28;20446;-85
2022/04/06 00:52:02;;;;;;;44.80;17.38;;;8.10;99.90;;;;;;5033335;28;20149;-85
2022/04/06 00:54:29;;;;;;;43.67;15.80;;;8.10;99.90;;;;;;5033176;28;20127;-85
2022/04/06 00:56:56;;;;;;;38.20;15.68;;;8.10;99.90;;;;;;5036841;28;20120;-85
2022/04/06 00:59:21;;;;;;;45.30;15.55;;;8.10;99.90;;;;;;5036779;28;20128;-85
2022/04/06 01:01:49;;;;;;;37.88;14.15;;;8.10;99.90;;;;;;5036955;28;20120;-85
2022/04/06 01:04:16;;;;;;;41.90;14.93;;;8.10;99.90;;;;;;5036389;28;20034;-85
2022/04/06 01:06:42;;;;;;;51.63;16.45;;;8.20;99.90;;;;;;5035425;28;20060;-85
2022/04/06 01:09:08;;;;;;;46.47;15.13;;;8.20;99.90;;;;;;5036679;28;20042;-85
2022/04/06 01:11:34;;;;;;;31.95;13.00;;;8.20;99.90;;;;;;5034938;28;20041;-85
2022/04/06 01:14:02;;;;;;;36.40;13.65;;;8.20;99.90;;;;;;5036278;28;20148;-86
2022/04/06 01:16:28;;;;;;;33.90;10.77;;;8.20;99.90;;;;;;5036375;28;20049;-85
2022/04/06 01:18:53;;;;;;;33.22;11.48;;;8.20;99.90;;;;;;5036316;28;20105;-85
2022/04/06 01:21:20;;;;;;;32.28;13.20;;;8.20;99.90;;;;;;5036262;28;20038;-85
2022/04/06 01:23:45;;;;;;;32.40;12.43;;;8.20;99.90;;;;;;5049706;28;20037;-86
2022/04/06 01:26:12;;;;;;;40.15;13.48;;;8.20;99.90;;;;;;5055939;28;20132;-86
2022/04/06 01:28:38;;;;;;;30.73;11.13;;;8.20;99.90;;;;;;5055955;28;20071;-85
2022/04/06 01:31:05;;;;;;;43.80;13.65;;;8.20;99.90;;;;;;5061357;28;20037;-86
2022/04/06 01:33:30;;;;;;;35.75;12.55;;;8.20;99.90;;;;;;5068222;28;20052;-85
2022/04/06 01:35:57;;;;;;;29.50;10.55;;;8.30;99.90;;;;;;5068520;28;20045;-86
2022/04/06 01:38:24;;;;;;;34.65;11.20;;;8.20;99.90;;;;;;5055981;28;20182;-86
2022/04/06 01:40:50;;;;;;;40.22;12.35;;;8.20;99.90;;;;;;5055884;28;20043;-86
2022/04/06 01:43:16;;;;;;;35.88;10.88;;;8.20;99.90;;;;;;5103266;22;20520;-87
2022/04/06 01:45:41;;;;;;;27.92;10.88;;;8.70;99.90;;;;;;5056851;28;20076;-86
2022/04/06 01:48:07;;;;;;;32.80;9.77;;;8.20;99.90;;;;;;5046444;28;20124;-86
2022/04/06 01:53:17;;;;;;;27.05;8.75;;;8.10;99.90;;;;;;5065397;28;20044;-86
2022/04/06 01:55:43;;;;;;;29.02;10.20;;;8.80;99.90;;;;;;5076652;28;20128;-86
2022/04/06 01:58:09;;;;;;;27.02;9.23;;;8.70;99.90;;;;;;5059134;28;20045;-86
2022/04/06 02:00:34;;;;;;;26.60;9.75;;;8.30;99.90;;;;;;5075114;28;20104;-86
2022/04/06 02:03:00;;;;;;;30.35;9.82;;;8.10;99.90;;;;;;5071753;28;20040;-86
2022/04/06 02:05:32;;;;;;;26.63;9.70;;;8.40;99.90;;;;;;5038607;28;20479;-86
2022/04/06 02:07:58;;;;;;;26.95;8.18;;;8.90;99.90;;;;;;5039199;28;20495;-87
2022/04/06 02:10:23;;;;;;;30.08;11.65;;;8.80;99.90;;;;;;5057602;28;20048;-86
2022/04/06 02:12:50;;;;;;;20.20;8.90;;;9.10;99.90;;;;;;5060924;28;20037;-86
2022/04/06 02:15:16;;;;;;;28.42;10.40;;;8.70;99.90;;;;;;5077186;28;20048;-86
2022/04/06 02:17:42;;;;;;;31.20;9.25;;;8.90;99.90;;;;;;5041320;28;20414;-86
2022/04/06 02:20:09;;;;;;;22.20;8.65;;;8.00;99.90;;;;;;5076467;28;20033;-86
2022/04/06 02:22:35;;;;;;;30.75;9.15;;;8.40;99.90;;;;;;5057364;28;20407;-86
2022/04/06 02:25:00;;;;;;;20.83;7.22;;;8.70;99.90;;;;;;5038835;28;20049;-86
2022/04/06 02:27:26;;;;;;;20.45;6.07;;;8.90;99.90;;;;;;5056955;28;20045;-86
2022/04/06 02:29:52;;;;;;;22.92;8.13;;;8.90;99.90;;;;;;5057545;28;20039;-86
2022/04/06 02:32:17;;;;;;;22.98;8.57;;;8.20;99.90;;;;;;5057008;28;20491;-86
2022/04/06 02:34:43;;;;;;;28.83;8.18;;;8.30;99.90;;;;;;5075739;28;20096;-86
2022/04/06 02:37:10;;;;;;;20.20;6.93;;;8.50;99.90;;;;;;5076656;28;20048;-86
2022/04/06 02:39:36;;;;;;;19.42;7.20;;;8.10;99.90;;;;;;5076293;28;20051;-86
2022/04/06 02:42:02;;;;;;;17.40;5.88;;;8.90;99.90;;;;;;5076624;28;20064;-86
2022/04/06 02:44:31;;;;;;;21.83;6.53;;;7.90;99.90;;;;;;5042469;28;20090;-86
2022/04/06 02:46:57;;;;;;;18.90;5.88;;;8.40;99.90;;;;;;5038853;28;20063;-86
2022/04/06 02:49:22;;;;;;;20.10;5.63;;;8.10;99.90;;;;;;5022274;28;20090;-85
2022/04/06 02:51:48;;;;;;;18.10;5.70;;;7.80;99.90;;;;;;5043343;28;20041;-85
2022/04/06 02:54:14;;;;;;;17.27;5.10;;;8.00;99.90;;;;;;5065846;28;20045;-86
2022/04/06 02:56:40;;;;;;;15.75;5.97;;;8.70;99.90;;;;;;5056412;28;20123;-86
2022/04/06 02:59:05;;;;;;;19.77;5.78;;;8.90;99.90;;;;;;5057060;28;20041;-86
2022/04/06 03:01:31;;;;;;;13.95;5.20;;;8.70;99.90;;;;;;5072009;28;20040;-86
2022/04/06 03:03:57;;;;;;;20.55;5.15;;;9.00;99.90;;;;;;5067601;28;20166;-86
2022/04/06 03:06:22;;;;;;;13.55;4.53;;;8.60;99.90;;;;;;5058380;28;20049;-86
2022/04/06 03:08:48;;;;;;;21.15;5.47;;;8.10;99.90;;;;;;5075788;28;20049;-86
2022/04/06 03:11:14;;;;;;;13.00;3.83;;;8.40;99.90;;;;;;5076403;28;20033;-86
2022/04/06 03:13:40;;;;;;;18.00;5.55;;;8.20;99.90;;;;;;5059765;28;20048;-86
2022/04/06 03:16:06;;;;;;;20.98;6.13;;;7.30;99.90;;;;;;5058462;28;20468;-87
2022/04/06 03:18:32;;;;;;;11.90;4.55;;;7.90;99.90;;;;;;5057560;28;20052;-87
2022/04/06 03:20:58;;;;;;;13.60;4.95;;;7.30;99.90;;;;;;5072321;28;20033;-86
2022/04/06 03:23:24;;;;;;;18.42;5.40;;;7.70;99.90;;;;;;5066326;28;20056;-87
2022/04/06 03:25:49;;;;;;;14.75;4.80;;;7.80;99.90;;;;;;5077061;28;20049;-87
2022/04/06 03:28:16;;;;;;;14.82;4.45;;;8.60;99.90;;;;;;5059157;28;20079;-87
2022/04/06 03:30:41;;;;;;;14.40;4.28;;;8.80;99.90;;;;;;5076748;28;20041;-87
2022/04/06 03:33:09;;;;;;;27.17;5.70;;;8.60;99.90;;;;;;5068356;28;20395;-85
2022/04/06 03:35:35;;;;;;;14.43;5.20;;;8.10;99.90;;;;;;5022399;28;20082;-85
2022/04/06 03:38:01;;;;;;;15.90;5.43;;;8.00;99.90;;;;;;5056196;28;20032;-85
2022/04/06 03:40:28;;;;;;;20.88;5.32;;;8.00;99.90;;;;;;5038755;28;20089;-84
2022/04/06 03:42:55;;;;;;;16.58;5.90;;;9.10;99.90;;;;;;5040389;28;20060;-87
2022/04/06 03:45:21;;;;;;;20.67;6.95;;;8.40;99.90;;;;;;5039164;28;20510;-87
2022/04/06 03:47:47;;;;;;;20.65;8.05;;;8.20;99.90;;;;;;5057491;28;20190;-87
2022/04/06 03:50:13;;;;;;;28.67;8.52;;;8.20;99.90;;;;;;5074419;28;20090;-87
2022/04/06 03:52:39;;;;;;;18.02;7.90;;;8.00;99.90;;;;;;5072232;28;20041;-87
2022/04/06 03:55:07;;;;;;;25.67;7.97;;;8.50;99.90;;;;;;5049855;28;20441;-87
2022/04/06 03:57:33;;;;;;;21.85;7.78;;;8.20;99.90;;;;;;5076558;28;20052;-87
2022/04/06 03:59:59;;;;;;;31.85;9.90;;;8.20;99.90;;;;;;5076652;28;20075;-87
2022/04/06 04:02:24;;;;;;;22.25;8.68;;;8.90;99.90;;;;;;5076390;28;20032;-87
2022/04/06 04:04:50;;;;;;;21.30;7.85;;;8.70;99.90;;;;;;5077727;28;20049;-87
2022/04/06 04:07:20;;;;;;;27.17;9.63;;;8.30;99.90;;;;;;5058917;28;20050;-87
2022/04/06 04:09:47;;;;;;;18.17;8.35;;;8.60;99.90;;;;;;5076470;28;20048;-87
2022/04/06 04:12:12;;;;;;;27.92;9.02;;;8.70;99.90;;;;;;5040990;28;20321;-87
2022/04/06 04:14:38;;;;;;;27.67;10.10;;;8.10;99.90;;;;;;5039109;28;20095;-87
2022/04/06 04:17:04;;;;;;;33.90;10.68;;;7.90;99.90;;;;;;5028014;28;20097;-87
2022/04/06 04:19:29;;;;;;;27.92;10.65;;;8.50;99.90;;;;;;5032441;28;20041;-86
2022/04/06 04:21:55;;;;;;;29.90;10.52;;;8.00;99.90;;;;;;5056362;28;20072;-87
2022/04/06 04:24:21;;;;;;;31.70;10.23;;;8.10;99.90;;;;;;5056189;28;20041;-87
2022/04/06 04:26:46;;;;;;;31.63;9.98;;;8.70;99.90;;;;;;5055960;28;20456;-87
2022/04/06 04:29:12;;;;;;;25.60;9.68;;;8.20;99.90;;;;;;5056574;28;20369;-87
2022/04/06 04:31:38;;;;;;;31.85;11.25;;;8.10;99.90;;;;;;5060808;28;20041;-87
2022/04/06 04:34:04;;;;;;;24.48;9.32;;;8.20;99.90;;;;;;5074934;28;20509;-87
2022/04/06 04:36:29;;;;;;;30.58;9.55;;;8.10;99.90;;;;;;5064272;28;20056;-87
2022/04/06 04:38:55;;;;;;;25.23;9.10;;;8.20;99.90;;;;;;5065295;28;20053;-88
2022/04/06 04:41:22;;;;;;;33.40;10.10;;;8.40;99.90;;;;;;5067953;28;20062;-88
2022/04/06 04:43:48;;;;;;;29.08;10.75;;;8.40;99.90;;;;;;5081086;28;20048;-89
2022/04/06 04:46:14;;;;;;;30.48;10.65;;;8.30;99.90;;;;;;5061342;28;20087;-89
2022/04/06 04:48:40;;;;;;;26.02;9.38;;;8.30;99.90;;;;;;5076787;28;20530;-87
2022/04/06 04:51:05;;;;;;;33.22;9.35;;;8.30;99.90;;;;;;5079416;28;20080;-88
2022/04/06 04:53:32;;;;;;;30.13;9.48;;;8.30;99.90;;;;;;5069131;28;20472;-88
2022/04/06 04:55:58;;;;;;;32.13;10.40;;;8.20;99.90;;;;;;5039565;28;20099;-88
2022/04/06 04:58:24;;;;;;;21.63;8.18;;;8.20;99.90;;;;;;5056746;28;20037;-87
2022/04/06 05:00:49;;;;;;;36.00;10.63;;;8.20;99.90;;;;;;5055366;28;20064;-88
2022/04/06 05:03:15;;;;;;;29.13;10.20;;;8.10;99.90;;;;;;5059847;28;20090;-88
2022/04/06 05:05:43;;;;;;;27.77;9.40;;;8.10;99.90;;;;;;5074933;28;20044;-88
2022/04/06 05:08:09;;;;;;;22.60;8.77;;;8.10;99.90;;;;;;5075429;28;20052;-88
2022/04/06 05:10:34;;;;;;;32.30;9.07;;;8.10;99.90;;;;;;5057332;28;20106;-88
2022/04/06 05:13:00;;;;;;;35.05;9.63;;;8.00;99.90;;;;;;5063054;28;20456;-89
2022/04/06 05:15:26;;;;;;;26.05;8.90;;;8.00;99.90;;;;;;5075320;28;20045;-88
2022/04/06 05:17:51;;;;;;;24.48;8.20;;;8.00;99.90;;;;;;5074791;28;20435;-89
2022/04/06 05:20:36;;;;;;;22.20;7.07;;;8.00;99.90;;;;;;5057797;28;20074;-89
2022/04/06 05:23:02;;;;;;;26.95;7.72;;;8.10;99.90;;;;;;5077879;28;20044;-89
2022/04/06 05:25:27;;;;;;;16.33;6.32;;;8.00;99.90;;;;;;5059775;28;20057;-88
2022/04/06 05:27:55;;;;;;;18.73;6.38;;;8.10;99.90;;;;;;5077799;28;20036;-88
2022/04/06 05:30:23;;;;;;;25.17;6.05;;;8.10;99.90;;;;;;5042905;28;20186;-89
2022/04/06 05:32:50;;;;;;;18.05;5.50;;;8.10;99.90;;;;;;5059258;28;20059;-89
2022/04/06 05:35:16;;;;;;;21.92;5.72;;;8.10;99.90;;;;;;5077375;28;20051;-88
2022/04/06 05:37:43;;;;;;;19.00;5.90;;;8.10;99.90;;;;;;5059883;28;20394;-89
2022/04/06 05:40:11;;;;;;;16.63;5.20;;;8.10;99.90;;;;;;5058936;28;20047;-88
2022/04/06 05:42:37;;;;;;;20.98;5.70;;;8.10;99.90;;;;;;5058351;28;20053;-87
2022/04/06 05:45:06;;;;;;;16.52;4.97;;;8.10;99.90;;;;;;5076669;28;20548;-89
2022/04/06 05:47:32;;;;;;;22.42;6.57;;;8.10;99.90;;;;;;5058648;28;20048;-88
2022/04/06 05:49:58;;;;;;;21.33;5.65;;;8.10;99.90;;;;;;5058613;28;20037;-88
2022/04/06 05:52:23;;;;;;;17.95;6.32;;;8.10;99.90;;;;;;5077012;28;20094;-89
2022/04/06 05:54:51;;;;;;;13.77;3.67;;;8.10;99.90;;;;;;5076524;28;20044;-88
2022/04/06 05:57:17;;;;;;;20.52;4.38;;;8.10;99.90;;;;;;5058765;28;20063;-88
2022/04/06 05:59:42;;;;;;;12.82;5.13;;;8.10;99.90;;;;;;5076450;28;20133;-88
2022/04/06 06:02:08;;;;;;;17.75;5.30;;;8.10;99.90;;;;;;5076839;28;20044;-88
2022/04/06 06:04:34;;;;;;;12.88;4.72;;;8.00;99.90;;;;;;5076916;28;20048;-88
2022/04/06 06:07:00;;;;;;;13.73;5.07;;;8.30;99.90;;;;;;5076333;28;20086;-89
2022/04/06 06:09:26;;;;;;;12.23;3.92;;;8.10;99.90;;;;;;5076633;28;20037;-89
2022/04/06 06:11:54;;;;;;;14.20;4.28;;;8.10;99.90;;;;;;5076169;28;20059;-88
2022/04/06 06:14:20;;;;;;;23.52;5.30;;;8.10;99.90;;;;;;5076294;28;20072;-89
2022/04/06 06:16:45;;;;;;;19.50;5.05;;;8.10;99.90;;;;;;5058111;28;20036;-88
2022/04/06 06:19:11;;;;;;;9.25;3.22;;;8.10;99.90;;;;;;5076287;28;20049;-88
2022/04/06 06:21:37;;;;;;;21.13;5.60;;;8.00;99.90;;;;;;5077924;28;20036;-88
2022/04/06 06:24:05;;;;;;;17.55;3.80;;;8.00;99.90;;;;;;5089871;28;20079;-88
2022/04/06 06:26:39;;;;;;;11.82;4.13;;;8.00;99.90;;;;;;5084059;28;20044;-88
2022/04/06 06:29:04;;;;;;;12.55;4.15;;;8.00;99.90;;;;;;5077099;28;20040;-88
2022/04/06 06:31:31;;;;;;;14.60;4.18;;;8.00;99.90;;;;;;5076929;28;20063;-88
2022/04/06 06:33:58;;;;;;;10.55;4.07;;;8.10;99.90;;;;;;5059346;28;20555;-89
2022/04/06 06:36:23;;;;;;;10.57;4.00;;;8.00;99.90;;;;;;5058661;28;20127;-88
2022/04/06 06:38:53;;;;;;;13.52;3.80;;;8.00;99.90;;;;;;5075995;28;20083;-88
2022/04/06 06:41:19;;;;;;;13.00;3.78;;;8.10;99.90;;;;;;5058009;28;20067;-88
2022/04/06 06:43:46;;;;;;;11.52;4.07;;;8.00;99.90;;;;;;5057669;28;20052;-88
2022/04/06 06:46:12;;;;;;;11.98;3.53;;;8.10;99.90;;;;;;5076269;28;20425;-88
2022/04/06 06:48:37;;;;;;;17.15;5.40;;;8.00;99.90;;;;;;5078566;28;20045;-88
2022/04/06 06:51:04;;;;;;;8.93;3.58;;;8.10;99.90;;;;;;5042148;28;20128;-89
2022/04/06 06:53:30;;;;;;;15.40;4.13;;;8.10;99.90;;;;;;5057681;28;20048;-89
2022/04/06 06:55:56;;;;;;;11.32;2.78;;;8.20;99.90;;;;;;5076566;28;20052;-89
2022/04/06 06:58:21;;;;;;;10.43;2.60;;;8.20;99.90;;;;;;5057231;28;20063;-90
2022/04/06 07:00:47;;;;;;;17.17;3.47;;;8.20;99.90;;;;;;5057876;28;20391;-89
2022/04/06 07:03:12;;;;;;;10.25;2.67;;;8.20;99.90;;;;;;5076483;28;20040;-89
2022/04/06 07:05:38;;;;;;;13.38;3.35;;;8.20;99.90;;;;;;5059002;28;20047;-89
2022/04/06 07:08:04;;;;;;;14.60;4.40;;;8.30;99.90;;;;;;5076763;28;20049;-89
2022/04/06 07:10:30;;;;;;;15.77;3.90;;;8.30;99.90;;;;;;5076767;28;20046;-89
2022/04/06 07:12:56;;;;;;;13.20;3.70;;;7.90;99.90;;;;;;5075771;28;20441;-89
2022/04/06 07:15:23;;;;;;;7.82;3.10;;;7.90;99.90;;;;;;5058230;28;20090;-90
2022/04/06 07:17:58;;;;;;;12.15;4.25;;;8.50;99.90;;;;;;5057435;28;20053;-88
2022/04/06 07:20:26;;;;;;;10.32;3.33;;;8.00;99.90;;;;;;5075308;28;20045;-89
2022/04/06 07:22:52;;;;;;;13.35;3.25;;;8.60;99.90;;;;;;5041104;28;20138;-90
2022/04/06 07:25:18;;;;;;;11.65;3.22;;;7.90;99.90;;;;;;5055584;28;20414;-89
2022/04/06 07:27:44;;;;;;;13.07;2.90;;;8.60;99.90;;;;;;5073116;28;20036;-88
2022/04/06 07:30:12;;;;;;;13.93;3.65;;;8.50;99.90;;;;;;5052742;28;20055;-89
2022/04/06 07:32:37;;;;;;;14.40;3.17;;;8.10;99.90;;;;;;5053523;28;20491;-89
2022/04/06 07:35:05;;;;;;;13.27;3.70;;;8.00;99.90;;;;;;5053187;28;20040;-88
2022/04/06 07:37:38;;;;;;;17.98;4.38;;;8.20;99.90;;;;;;5053676;28;20069;-88
2022/04/06 07:40:05;;;;;;;20.50;4.10;;;7.90;99.90;;;;;;5035535;28;20095;-89
2022/04/06 07:42:30;;;;;;;10.02;3.80;;;8.10;99.90;;;;;;5035599;28;20052;-88
2022/04/06 07:44:56;;;;;;;22.15;5.05;;;8.60;99.90;;;;;;5054939;28;20071;-88
2022/04/06 07:47:27;;;;;;;17.02;4.95;;;8.10;99.90;;;;;;5058410;28;20055;-89
2022/04/06 07:49:56;;;;;;;22.85;4.97;;;9.00;99.90;;;;;;5055883;28;20051;-88
2022/04/06 07:52:22;;;;;;;15.73;4.53;;;8.90;99.90;;;;;;5047019;28;20042;-89
2022/04/06 07:54:47;;;;;;;16.50;4.20;;;8.20;99.90;;;;;;5032598;28;20037;-89
2022/04/06 07:57:13;;;;;;;11.73;3.63;;;8.40;99.90;;;;;;5032276;28;20045;-91
2022/04/06 07:59:39;;;;;;;19.55;5.10;;;8.30;99.90;;;;;;5025849;28;20043;-91
2022/04/06 08:02:05;;;;;;;22.67;5.88;;;7.90;99.90;;;;;;5034437;28;20107;-89
2022/04/06 08:04:31;;;;;;;22.52;4.93;;;8.30;99.90;;;;;;5031018;28;20404;-89
2022/04/06 08:06:56;;;;;;;20.15;6.10;;;8.30;99.90;;;;;;5031306;28;20044;-89
2022/04/06 08:09:22;;;;;;;20.02;5.88;;;8.20;99.90;;;;;;5046691;28;20045;-88
2022/04/06 08:11:48;;;;;;;15.77;4.13;;;8.30;99.90;;;;;;5032728;28;20049;-89
2022/04/06 08:14:14;;;;;;;23.23;6.65;;;8.20;99.90;;;;;;5032581;28;20045;-90
2022/04/06 08:16:39;;;;;;;12.95;5.80;;;8.20;99.90;;;;;;5032865;28;20049;-89
2022/04/06 08:19:05;;;;;;;25.55;7.28;;;8.20;99.90;;;;;;5032361;28;20021;-89
2022/04/06 08:21:31;;;;;;;13.68;4.78;;;8.30;99.90;;;;;;5032794;28;20487;-90
2022/04/06 08:23:56;;;;;;;12.55;3.25;;;8.30;99.90;;;;;;5032926;28;20044;-89
2022/04/06 08:26:22;;;;;;;16.40;4.32;;;8.40;99.90;;;;;;5032017;28;20040;-91
2022/04/06 08:28:47;;;;;;;20.30;5.13;;;8.50;99.90;;;;;;5032081;28;20157;-89
2022/04/06 08:31:13;;;;;;;15.05;4.70;;;8.50;99.90;;;;;;5031716;28;20109;-89
2022/04/06 08:33:39;;;;;;;24.48;4.93;;;8.50;99.90;;;;;;5031586;28;20046;-89
2022/04/06 08:36:06;;;;;;;22.00;6.53;;;8.50;99.90;;;;;;5032089;28;20092;-89
2022/04/06 08:38:32;;;;;;;24.05;4.93;;;8.50;99.90;;;;;;5047266;28;20053;-90
2022/04/06 08:40:57;;;;;;;18.13;5.03;;;8.50;99.90;;;;;;5031910;28;20049;-90
2022/04/06 08:43:24;;;;;;;15.05;4.13;;;8.50;99.90;;;;;;5031855;28;20096;-89
2022/04/06 08:45:50;;;;;;;14.77;4.97;;;8.50;99.90;;;;;;5031881;28;20077;-89
2022/04/06 08:48:19;;;;;;;15.07;4.28;;;8.50;99.90;;;;;;5048299;28;20056;-90
2022/04/06 08:50:45;;;;;;;11.75;3.92;;;8.50;99.90;;;;;;5016161;28;20081;-90
2022/04/06 08:53:12;;;;;;;15.82;4.40;;;8.40;99.90;;;;;;5019222;28;20057;-91
2022/04/06 08:55:38;;;;;;;17.55;3.55;;;8.40;99.90;;;;;;5016260;28;20105;-89
2022/04/06 08:58:04;;;;;;;16.08;5.43;;;8.50;99.90;;;;;;5034209;28;20049;-90
2022/04/06 09:00:31;;;;;;;9.10;3.63;;;8.50;99.90;;;;;;5035357;28;20508;-91
2022/04/06 09:02:57;;;;;;;11.07;3.60;;;8.60;99.90;;;;;;5035261;28;20041;-91
2022/04/06 09:05:28;;;;;;;11.88;3.88;;;8.50;99.90;;;;;;5033677;28;20084;-90
2022/04/06 09:07:55;;;;;;;12.38;4.72;;;8.60;99.90;;;;;;5036870;28;20393;-90
2022/04/06 09:10:37;;;;;;;19.77;4.75;;;8.70;99.90;;;;;;5034703;28;20424;-90
2022/04/06 09:13:20;;;;;;;12.68;4.00;;;8.80;99.90;;;;;;5015016;28;20045;-90
2022/04/06 09:15:47;;;;;;;11.63;4.38;;;8.80;99.90;;;;;;5036252;28;20123;-90
2022/04/06 09:18:13;;;;;;;15.10;3.45;;;8.90;99.90;;;;;;5046893;28;20355;-90
2022/04/06 09:20:39;;;;;;;13.68;4.32;;;9.10;99.90;;;;;;5033137;28;20501;-90
2022/04/06 09:23:06;;;;;;;23.50;4.50;;;9.50;99.90;;;;;;5065614;28;20048;-82
2022/04/06 09:25:37;;;;;;;11.20;3.90;;;9.80;99.90;;;;;;5042334;28;20046;-87
2022/04/06 09:28:08;;;;;;;14.32;4.40;;;9.40;99.90;;;;;;5043497;28;20077;-91
2022/04/06 09:30:37;;;;;;;16.20;3.72;;;9.60;99.90;;;;;;5025412;28;20048;-91
2022/04/06 09:33:03;;;;;;;13.57;3.30;;;9.40;99.90;;;;;;5042069;28;20034;-90
2022/04/06 09:35:30;;;;;;;13.32;3.05;;;9.50;99.90;;;;;;5047960;28;20041;-90
2022/04/06 09:38:22;;;;;;;10.80;3.25;;;9.70;99.90;;;;;;5040782;28;20055;-91
2022/04/06 09:40:49;;;;;;;17.95;4.32;;;9.60;99.90;;;;;;5022948;28;20044;-90
2022/04/06 09:43:29;;;;;;;10.27;2.65;;;9.70;99.90;;;;;;5059677;28;20088;-90
2022/04/06 09:48:54;;;;;;;10.38;2.38;;;9.90;99.90;;;;;;5058234;28;20760;-90
2022/04/06 09:51:23;;;;;;;17.75;4.13;;;9.70;99.90;;;;;;5058385;28;20033;-90
2022/04/06 09:53:50;;;;;;;18.48;4.28;;;9.70;99.90;;;;;;5039340;28;20045;-90
2022/04/06 09:56:17;;;;;;;10.82;3.15;;;9.80;99.90;;;;;;5058512;28;20457;-91
2022/04/06 09:58:45;;;;;;;7.38;1.92;;;10.20;99.90;;;;;;5057794;28;20102;-90
2022/04/06 10:01:14;;;;;;;18.58;3.83;;;9.90;99.90;;;;;;5038870;28;20045;-90
2022/04/06 10:03:51;;;;;;;12.93;3.80;;;10.20;99.90;;;;;;5039001;28;20068;-89
2022/04/06 10:06:17;;;;;;;7.38;2.83;;;10.20;99.90;;;;;;5039084;28;20053;-90
2022/04/06 10:08:43;;;;;;;11.27;3.10;;;9.70;99.90;;;;;;5055774;28;20047;-89
2022/04/06 10:11:10;;;;;;;9.38;3.50;;;10.00;99.90;;;;;;5056221;28;20048;-89
2022/04/06 10:13:38;;;;;;;10.68;3.92;;;9.90;99.90;;;;;;5055785;28;20041;-89
2022/04/06 10:16:05;;;;;;;13.10;3.85;;;9.80;99.90;;;;;;5056543;28;20094;-89
2022/04/06 10:18:33;;;;;;;15.07;4.57;;;9.80;99.90;;;;;;5056498;28;20053;-89
2022/04/06 10:21:04;;;;;;;12.85;3.78;;;9.80;99.90;;;;;;5058396;28;20052;-89
2022/04/06 10:23:57;;;;;;;14.48;3.85;;;9.80;99.90;;;;;;5058160;28;20069;-90
2022/04/06 10:26:50;;;;;;;18.02;6.03;;;9.70;99.90;;;;;;5041086;28;20145;-89
2022/04/06 10:29:15;;;;;;;12.32;4.78;;;9.70;99.90;;;;;;5041530;28;20041;-89
2022/04/06 10:31:41;;;;;;;10.48;4.32;;;9.70;99.90;;;;;;5059887;28;20115;-89
2022/04/06 10:34:37;;;;;;;16.25;4.65;;;9.60;99.90;;;;;;5024448;28;20102;-89
2022/04/06 10:37:15;;;;;;;19.92;4.55;;;9.50;99.90;;;;;;5032869;28;20061;-89
2022/04/06 10:39:50;;;;;;;12.68;3.85;;;9.40;99.90;;;;;;5059067;28;20487;-89
2022/04/06 10:42:29;;;;;;;20.15;4.93;;;10.20;99.90;;;;;;5040473;28;20056;-89
2022/04/06 10:44:55;;;;;;;15.63;5.60;;;9.60;99.90;;;;;;5059786;28;20174;-89
2022/04/06 10:47:22;;;;;;;16.50;4.13;;;10.00;99.90;;;;;;5058564;28;20044;-89
2022/04/06 10:50:13;;;;;;;17.35;5.32;;;9.50;99.90;;;;;;5038837;28;20444;-88
2022/04/06 10:52:39;;;;;;;23.77;5.07;;;9.60;99.90;;;;;;5075053;28;20056;-90
2022/04/06 10:55:09;;;;;;;19.20;5.28;;;9.50;99.90;;;;;;5079169;28;20045;-89
2022/04/06 10:57:59;;;;;;;21.77;6.47;;;9.50;99.90;;;;;;5038305;28;20081;-89
2022/04/06 11:00:27;;;;;;;19.30;6.68;;;9.50;99.90;;;;;;5070693;28;20041;-89
2022/04/06 11:02:54;;;;;;;17.17;5.30;;;9.50;99.90;;;;;;5054851;28;20499;-90
2022/04/06 11:05:46;;;;;;;20.60;7.13;;;9.40;99.90;;;;;;5053874;28;20079;-90
2022/04/06 11:11:38;;;;;;;16.77;6.38;;;9.40;99.90;;;;;;5038469;28;20052;-89
2022/04/06 11:14:04;;;;;;;17.13;5.80;;;9.90;99.90;;;;;;5037852;28;20505;-90
2022/04/06 11:16:46;;;;;;;18.13;5.55;;;9.40;99.90;;;;;;5055161;28;20166;-90
2022/04/06 11:19:13;;;;;;;16.60;6.07;;;9.40;99.90;;;;;;5037349;28;20048;-90
2022/04/06 11:21:53;;;;;;;18.13;6.97;;;9.50;99.90;;;;;;5037212;28;20056;-90
2022/04/06 11:24:28;;;;;;;22.25;6.22;;;9.40;99.90;;;;;;5054583;28;20041;-90
2022/04/06 11:26:55;;;;;;;14.10;6.10;;;9.30;99.90;;;;;;5020673;28;20407;-89
2022/04/06 11:29:27;;;;;;;15.90;5.35;;;9.50;99.90;;;;;;5037214;28;20049;-90
2022/04/06 11:32:02;;;;;;;17.77;6.53;;;10.20;99.90;;;;;;5055474;28;20044;-91
2022/04/06 11:34:38;;;;;;;21.52;7.10;;;9.80;99.90;;;;;;5052207;28;20120;-90
2022/04/06 11:37:06;;;;;;;18.67;5.43;;;9.80;99.90;;;;;;5033933;28;20445;-90
2022/04/06 11:39:32;;;;;;;16.02;6.57;;;9.90;99.90;;;;;;5051199;28;20048;-90
2022/04/06 11:42:00;;;;;;;26.45;10.32;;;10.10;99.90;;;;;;5051509;28;20842;-90
2022/04/06 11:44:26;;;;;;;16.25;6.00;;;10.20;99.90;;;;;;5034964;28;20518;-90
2022/04/06 11:46:52;;;;;;;15.77;7.40;;;10.30;99.90;;;;;;5034444;28;20044;-90
2022/04/06 11:49:26;;;;;;;16.67;7.03;;;10.30;99.90;;;;;;5051582;28;20403;-90
2022/04/06 11:51:56;;;;;;;14.48;6.22;;;10.70;99.90;;;;;;5052032;28;20049;-90
2022/04/06 11:54:23;;;;;;;19.25;7.50;;;11.20;99.90;;;;;;5052670;28;20107;-90
2022/04/06 11:56:53;;;;;;;14.43;5.28;;;10.90;99.90;;;;;;5052612;28;20038;-90
2022/04/06 11:59:21;;;;;;;10.75;5.05;;;10.80;99.90;;;;;;5052006;28;20396;-89
2022/04/06 12:01:47;;;;;;;18.45;5.80;;;10.80;99.90;;;;;;5052319;28;20053;-87
2022/04/06 12:04:22;;;;;;;14.07;4.72;;;10.70;99.90;;;;;;5017328;28;20039;-87
2022/04/06 12:06:52;;;;;;;16.13;4.60;;;10.50;99.90;;;;;;5033669;28;20045;-87
2022/04/06 12:09:17;;;;;;;22.08;6.18;;;10.50;99.90;;;;;;5047299;28;20454;-87
2022/04/06 12:11:48;;;;;;;15.93;6.10;;;10.50;99.90;;;;;;5051990;28;20080;-87
2022/04/06 12:14:14;;;;;;;19.17;5.28;;;10.50;99.90;;;;;;5052304;28;20132;-87
2022/04/06 12:16:44;;;;;;;18.45;4.78;;;10.70;99.90;;;;;;5051444;28;20068;-87
2022/04/06 12:19:13;;;;;;;14.05;4.22;;;10.90;99.90;;;;;;5051226;28;20098;-87
2022/04/06 12:21:44;;;;;;;14.50;5.70;;;12.10;99.90;;;;;;5050907;28;20056;-87
2022/04/06 12:24:11;;;;;;;17.92;6.00;;;11.80;99.90;;;;;;5051360;28;20118;-87
2022/04/06 12:26:45;;;;;;;17.23;3.92;;;11.90;99.90;;;;;;5053003;28;20132;-88
2022/04/06 12:29:15;;;;;;;18.35;5.85;;;11.70;99.90;;;;;;5051171;28;20767;-87
2022/04/06 12:31:42;;;;;;;17.77;4.68;;;12.10;99.90;;;;;;5050266;28;20040;-87
2022/04/06 12:34:30;;;;;;;12.55;4.20;;;11.50;99.90;;;;;;5051412;28;20055;-88
2022/04/06 12:36:58;;;;;;;15.85;4.80;;;11.60;99.90;;;;;;5052322;28;20127;-88
2022/04/06 12:39:26;;;;;;;11.00;3.75;;;11.80;99.90;;;;;;5035029;28;20039;-87
2022/04/06 12:42:00;;;;;;;15.65;4.68;;;12.80;99.90;;;;;;5051559;28;20056;-87
2022/04/06 12:44:27;;;;;;;16.70;4.30;;;12.00;99.90;;;;;;5034517;28;20124;-87
2022/04/06 12:46:53;;;;;;;13.73;3.47;;;13.10;99.90;;;;;;5033702;28;20060;-87
2022/04/06 12:49:29;;;;;;;14.50;4.68;;;13.50;99.90;;;;;;5033311;28;20048;-87
2022/04/06 12:52:18;;;;;;;17.08;3.38;;;13.40;99.90;;;;;;5035804;28;20060;-87
2022/04/06 12:54:49;;;;;;;14.63;4.25;;;13.00;99.90;;;;;;5070294;28;20475;-86
2022/04/06 12:57:30;;;;;;;13.55;3.50;;;13.10;99.90;;;;;;5036746;28;20041;-87